Archival Weather

Republic

Farmingdale, New York (KFRG)

Report from: Saturday, January 27, 2024 7:13 AM EST
Current time: Monday, June 17, 2024 3:07 AM EDT

Current weather – Weather history – Daily summaries
Weather forecast

Temperature5.0°C (41.0°F)
Wind chill3.3°C (38.0°F)
Dew point3.9°C (39.0°F)
Winds 4 kts (2.1 m/s, 4.6 mph) North-Northwest (340°)
Visibility1.8 mi. (2.8 km)
Clouds Scattered clouds 500 ft. (152 m)
Ceiling: Overcast 1,100 ft. (335 m)
Altimeter30.19 in.Hg (1022 mB)
Relative humidity93 %
Density altitude-1,399 ft. (-427 m)
Remarks Automated weather observing station without precipitation discriminator
Surface visibility
Flight conditions Instrument Meteorological Conditions
Raw dataKFRG 271213Z 34004KT 1 3/4SM SCT005 OVC011 05/04 A3019 RMK AO1 SFC VIS 9 T00500039
An error has occurred. This application may no longer respond until reloaded. Reload 🗙